Fairfax, Vermont
Current Conditions -  °F | °C
As of 4:54 AM on Wednesday 22 Oct 2014 (Local Time) from KBTV Reporting Station
Overcast Overcast  
Wind Chill: 43°   Ceiling: 400
Heat Index: 47°   Visibility: 9mi
Dew Point: 44°   Wind: 8mph
Humidity: 90%   Direction: 350°N
Pressure: 30.12"   Gusts: NA
Location:  44.67°N, 73.01°W
Report Text: KBTV 220854Z 35007KT 9SM OVC004 08/07 A3012 RMK AO2 SLP203 T00830067 53005 $
Loading
Personal Weather Stations






























Interactive Weather Map
Tropical Storm Tracking
New forecast layout! Learn more

10-Day Weather Forecast

Advertisements
Track Severe Weather on mobile